Time;durP1;ratioP1;P1;durP2;ratioP2;P2;SDS_P1;SDS_P2;PMS_P1;PMS_P2;Temp;Humidity;BMP_temperature;BMP_pressure;BME280_temperature;BME280_humidity;BME280_pressure;Samples;Min_cycle;Max_cycle;Signal;HPM_P1;HPM_P2
2022/01/26 00:07:33;;;;;;;51.47;26.45;;;4.30;99.90;;;;;;6176190;23;20202;-85
2022/01/26 00:09:59;;;;;;;65.00;30.60;;;4.10;99.90;;;;;;6178409;23;20596;-84
2022/01/26 00:12:24;;;;;;;65.20;32.70;;;4.00;99.90;;;;;;6173872;23;20226;-85
2022/01/26 00:14:50;;;;;;;52.07;28.03;;;4.20;99.90;;;;;;6178868;23;20147;-84
2022/01/26 00:17:16;;;;;;;54.03;26.43;;;4.00;99.90;;;;;;6174747;23;20567;-85
2022/01/26 00:22:36;;;;;;;56.13;28.48;;;4.10;99.90;;;;;;6186955;23;20207;-85
2022/01/26 00:38:43;;;;;;;59.35;28.17;;;4.50;99.90;;;;;;6177640;23;20182;-84
2022/01/26 00:41:14;;;;;;;54.15;28.85;;;4.10;99.90;;;;;;6174174;23;20163;-84
2022/01/26 00:43:46;;;;;;;55.63;28.30;;;4.00;99.90;;;;;;6176039;23;20148;-85
2022/01/26 00:46:12;;;;;;;64.35;29.80;;;6.40;99.90;;;;;;6175871;23;20509;-84
2022/01/26 00:48:38;;;;;;;61.50;29.60;;;4.50;99.90;;;;;;6178157;23;20144;-85
2022/01/26 00:51:06;;;;;;;64.05;29.73;;;4.10;99.90;;;;;;6175708;23;20192;-85
2022/01/26 00:53:37;;;;;;;57.08;30.33;;;4.50;99.90;;;;;;6177978;23;20572;-85
2022/01/26 00:56:04;;;;;;;59.83;28.02;;;3.90;99.90;;;;;;6174757;23;20235;-85
2022/01/26 00:58:31;;;;;;;59.97;29.88;;;4.00;99.90;;;;;;6178286;23;20630;-84
2022/01/26 01:00:59;;;;;;;67.25;31.33;;;4.00;99.90;;;;;;6173887;23;20164;-84
2022/01/26 01:03:25;;;;;;;65.85;29.67;;;4.00;99.90;;;;;;6177816;23;20129;-84
2022/01/26 01:05:59;;;;;;;72.30;32.97;;;4.10;99.90;;;;;;6173731;23;20163;-84
2022/01/26 01:08:26;;;;;;;69.55;32.42;;;4.00;99.90;;;;;;6177574;23;20374;-85
2022/01/26 01:10:54;;;;;;;63.85;32.78;;;4.00;99.90;;;;;;6173797;23;20286;-84
2022/01/26 01:13:29;;;;;;;60.03;29.25;;;3.90;99.90;;;;;;6177485;23;20144;-84
2022/01/26 01:15:55;;;;;;;69.55;32.05;;;4.40;99.90;;;;;;6175551;23;20469;-84
2022/01/26 01:21:18;;;;;;;64.70;30.90;;;4.00;99.90;;;;;;6175937;23;20163;-84
2022/01/26 01:31:40;;;;;;;61.65;30.42;;;3.80;99.90;;;;;;6175157;23;20297;-83
2022/01/26 01:34:09;;;;;;;63.40;29.85;;;3.80;99.90;;;;;;6177236;23;20227;-84
2022/01/26 01:36:37;;;;;;;58.75;29.73;;;5.40;99.90;;;;;;6175445;23;20152;-84
2022/01/26 01:39:04;;;;;;;67.15;31.75;;;3.70;99.90;;;;;;6175880;23;20206;-84
2022/01/26 01:41:30;;;;;;;62.78;29.58;;;3.60;99.90;;;;;;6175095;23;20155;-84
2022/01/26 01:43:56;;;;;;;66.03;31.17;;;;;;;;;;6177238;23;20832;-84
2022/01/26 01:46:22;;;;;;;71.57;31.00;;;3.80;99.90;;;;;;6174890;23;20195;-85
2022/01/26 01:48:47;;;;;;;81.47;32.30;;;3.90;99.90;;;;;;6177906;23;20140;-85
2022/01/26 01:51:16;;;;;;;60.10;29.20;;;3.80;99.90;;;;;;6176370;23;20263;-85
2022/01/26 01:53:44;;;;;;;66.85;32.35;;;3.60;99.90;;;;;;6179170;23;20599;-85
2022/01/26 01:56:12;;;;;;;70.63;33.08;;;3.90;99.90;;;;;;6184257;23;20166;-84
2022/01/26 01:58:39;;;;;;;66.22;32.63;;;4.00;99.90;;;;;;6193736;23;20148;-85
2022/01/26 02:01:08;;;;;;;67.53;31.45;;;4.70;99.90;;;;;;6185580;23;20148;-85
2022/01/26 02:03:34;;;;;;;72.32;31.08;;;3.90;99.90;;;;;;6188427;23;20152;-85
2022/01/26 02:06:00;;;;;;;62.92;28.85;;;3.90;99.90;;;;;;6176495;23;20152;-84
2022/01/26 02:08:26;;;;;;;66.63;30.17;;;3.90;99.90;;;;;;6178004;23;20653;-85
2022/01/26 02:10:52;;;;;;;68.50;32.03;;;4.00;99.90;;;;;;6173472;23;20425;-84
2022/01/26 02:13:24;;;;;;;72.20;33.70;;;3.90;99.90;;;;;;6175521;23;20234;-85
2022/01/26 02:15:59;;;;;;;66.45;29.45;;;3.80;99.90;;;;;;6175262;23;21001;-84
2022/01/26 02:21:30;;;;;;;67.10;29.25;;;3.60;99.90;;;;;;6182909;23;20167;-84
2022/01/26 02:54:43;;;;;;;73.18;32.17;;;4.10;99.90;;;;;;6164226;23;20159;-87
2022/01/26 02:59:59;;;;;;;64.53;32.60;;;3.90;99.90;;;;;;6190790;23;20145;-86
2022/01/26 03:03:17;;;;;;;70.80;34.45;;;3.70;99.90;;;;;;6179286;23;20174;-87
2022/01/26 03:05:28;;;;;;;70.18;34.60;;;3.70;99.90;;;;;;6176718;23;20571;-86
2022/01/26 03:08:04;;;;;;;64.05;33.60;;;3.80;99.90;;;;;;6177455;23;20176;-86
2022/01/26 03:10:50;;;;;;;71.22;33.70;;;3.70;99.90;;;;;;6179826;23;20135;-84
2022/01/26 03:13:40;;;;;;;71.28;32.20;;;3.80;99.90;;;;;;6180957;23;20194;-85
2022/01/26 03:16:14;;;;;;;71.03;35.00;;;3.60;99.90;;;;;;6178726;23;20155;-87
2022/01/26 03:21:43;;;;;;;80.93;35.17;;;3.80;99.90;;;;;;6180119;23;20143;-87
2022/01/26 03:30:08;;;;;;;83.20;37.30;;;3.80;99.90;;;;;;6191026;23;20140;-87
2022/01/26 03:35:02;;;;;;;75.25;34.78;;;3.60;99.90;;;;;;6184683;23;20159;-87
2022/01/26 03:37:38;;;;;;;76.50;33.00;;;3.60;99.90;;;;;;6177809;23;20592;-88
2022/01/26 03:40:12;;;;;;;82.03;36.40;;;3.60;99.90;;;;;;6181332;23;20135;-85
2022/01/26 03:42:38;;;;;;;84.13;38.50;;;3.80;99.90;;;;;;6176791;23;20285;-86
2022/01/26 03:45:04;;;;;;;90.27;39.33;;;3.80;99.90;;;;;;6177979;23;20234;-87
2022/01/26 03:47:30;;;;;;;94.53;40.13;;;3.70;99.90;;;;;;6176524;23;20399;-86
2022/01/26 03:49:59;;;;;;;91.47;37.47;;;3.70;99.90;;;;;;6176954;23;20773;-86
2022/01/26 03:52:24;;;;;;;114.32;46.55;;;3.70;99.90;;;;;;6175373;23;20396;-86
2022/01/26 03:54:50;;;;;;;94.03;40.30;;;3.60;99.90;;;;;;6179006;23;20156;-87
2022/01/26 03:57:16;;;;;;;110.03;46.33;;;3.50;99.90;;;;;;6177723;23;20151;-87
2022/01/26 03:59:42;;;;;;;113.37;43.50;;;;;;;;;;6177085;23;20152;-86
2022/01/26 04:02:08;;;;;;;111.90;43.00;;;3.60;99.90;;;;;;6175718;23;20399;-86
2022/01/26 04:04:41;;;;;;;110.97;44.20;;;3.60;99.90;;;;;;6177635;23;20627;-86
2022/01/26 04:07:07;;;;;;;114.10;42.13;;;3.70;99.90;;;;;;6175772;23;20152;-86
2022/01/26 04:09:33;;;;;;;109.80;40.47;;;3.70;99.90;;;;;;6176632;23;20163;-86
2022/01/26 04:11:59;;;;;;;120.63;42.17;;;3.50;99.90;;;;;;6175400;23;20266;-86
2022/01/26 04:14:29;;;;;;;102.07;44.25;;;3.70;99.90;;;;;;6178606;23;20148;-86
2022/01/26 04:16:58;;;;;;;120.25;46.10;;;3.70;99.90;;;;;;6175844;23;20608;-86
2022/01/26 04:19:25;;;;;;;125.28;42.47;;;3.60;99.90;;;;;;6176783;23;20525;-86
2022/01/26 04:22:01;;;;;;;124.68;48.50;;;3.50;99.90;;;;;;6177182;23;20266;-85
2022/01/26 04:24:33;;;;;;;126.70;47.00;;;3.30;99.90;;;;;;6180741;23;20128;-85
2022/01/26 04:27:06;;;;;;;124.57;47.17;;;3.30;99.90;;;;;;6190957;23;20168;-85
2022/01/26 04:29:35;;;;;;;119.35;44.65;;;3.50;99.90;;;;;;6191336;23;20336;-87
2022/01/26 04:32:16;;;;;;;107.43;42.10;;;3.50;99.90;;;;;;6186963;23;20194;-84
2022/01/26 04:35:06;;;;;;;116.00;45.97;;;3.60;99.90;;;;;;6190944;23;20144;-86
2022/01/26 04:40:34;;;;;;;121.43;46.17;;;3.40;99.90;;;;;;6190788;23;20423;-85
2022/01/26 04:43:06;;;;;;;139.02;52.28;;;3.40;99.90;;;;;;6177562;23;20145;-88
2022/01/26 04:45:35;;;;;;;127.80;42.10;;;3.40;99.90;;;;;;6176272;23;20688;-87
2022/01/26 04:48:10;;;;;;;137.05;48.65;;;3.40;99.90;;;;;;6179121;23;20180;-87
2022/01/26 04:50:36;;;;;;;114.05;45.15;;;3.20;99.90;;;;;;6174939;23;20196;-86
2022/01/26 04:53:02;;;;;;;112.60;46.03;;;;;;;;;;6178260;23;20160;-83
2022/01/26 04:55:27;;;;;;;123.00;46.47;;;3.50;99.90;;;;;;6176874;23;20466;-86
2022/01/26 04:57:54;;;;;;;107.63;40.40;;;;;;;;;;6176837;23;20238;-86
2022/01/26 05:00:19;;;;;;;126.45;47.38;;;3.40;99.90;;;;;;6176939;23;20198;-87
2022/01/26 05:02:45;;;;;;;116.23;45.47;;;3.50;99.90;;;;;;6177198;23;20160;-87
2022/01/26 05:05:12;;;;;;;101.03;41.10;;;;;;;;;;6177543;23;20395;-86
2022/01/26 05:07:37;;;;;;;115.07;43.78;;;3.80;99.90;;;;;;6175093;23;20195;-85
2022/01/26 05:10:04;;;;;;;108.27;40.33;;;3.60;99.90;;;;;;6177090;23;20599;-86
2022/01/26 05:12:30;;;;;;;115.50;43.22;;;3.50;99.90;;;;;;6177314;23;20179;-87
2022/01/26 05:14:56;;;;;;;122.05;43.85;;;3.60;99.90;;;;;;6176799;23;20160;-86
2022/01/26 05:17:23;;;;;;;119.77;44.93;;;3.60;99.90;;;;;;6176613;23;20171;-86
2022/01/26 05:19:54;;;;;;;122.63;47.13;;;3.70;99.90;;;;;;6178032;23;20170;-85
2022/01/26 05:22:20;;;;;;;115.97;44.90;;;3.50;99.90;;;;;;6177853;23;20148;-86
2022/01/26 05:24:47;;;;;;;117.00;43.13;;;3.60;99.90;;;;;;6179275;23;20151;-86
2022/01/26 05:27:16;;;;;;;118.18;43.55;;;3.60;99.90;;;;;;6177278;23;20387;-86
2022/01/26 05:29:42;;;;;;;117.38;43.53;;;3.60;99.90;;;;;;6179268;23;20175;-86
2022/01/26 05:32:08;;;;;;;112.05;43.70;;;3.50;99.90;;;;;;6177162;23;20241;-85
2022/01/26 05:34:33;;;;;;;113.30;41.90;;;3.60;99.90;;;;;;6176756;23;20159;-86
2022/01/26 05:37:02;;;;;;;106.53;38.43;;;2.70;99.90;;;;;;6176218;23;20159;-86
2022/01/26 05:39:28;;;;;;;118.63;42.38;;;3.50;99.90;;;;;;6177801;23;20156;-86
2022/01/26 05:41:54;;;;;;;128.77;47.27;;;3.40;99.90;;;;;;6177690;23;20544;-86
2022/01/26 05:44:24;;;;;;;120.07;42.67;;;3.40;99.90;;;;;;6177030;23;20620;-85
2022/01/26 05:46:50;;;;;;;121.45;43.17;;;3.40;99.90;;;;;;6179340;23;20218;-86
2022/01/26 05:49:17;;;;;;;122.00;45.43;;;3.30;99.90;;;;;;6177625;23;20207;-85
2022/01/26 05:51:47;;;;;;;128.52;45.92;;;3.40;99.90;;;;;;6176466;23;20550;-81
2022/01/26 05:54:14;;;;;;;119.45;43.63;;;3.50;99.90;;;;;;6175435;23;20160;-86
2022/01/26 05:56:42;;;;;;;101.60;42.35;;;3.50;99.90;;;;;;6177677;23;20164;-85
2022/01/26 05:59:08;;;;;;;111.78;40.63;;;3.50;99.90;;;;;;6174476;23;20156;-83
2022/01/26 06:01:36;;;;;;;119.70;43.25;;;3.50;99.90;;;;;;6178357;23;20171;-85
2022/01/26 06:04:02;;;;;;;110.53;43.05;;;3.20;99.90;;;;;;6175523;23;20516;-80
2022/01/26 06:06:28;;;;;;;107.00;40.25;;;3.30;99.90;;;;;;6176134;23;20164;-85
2022/01/26 06:08:54;;;;;;;125.07;45.80;;;3.30;99.90;;;;;;6177773;23;20156;-85
2022/01/26 06:11:20;;;;;;;122.27;45.60;;;;;;;;;;6182915;23;20431;-83
2022/01/26 06:13:49;;;;;;;118.75;46.63;;;3.30;99.90;;;;;;6178632;23;20152;-85
2022/01/26 06:16:16;;;;;;;131.82;47.40;;;3.20;99.90;;;;;;6179295;23;20188;-85
2022/01/26 06:18:43;;;;;;;116.65;45.03;;;3.10;99.90;;;;;;6174756;23;20163;-83
2022/01/26 06:21:09;;;;;;;116.32;45.25;;;3.20;99.90;;;;;;6176491;23;20225;-86
2022/01/26 06:23:35;;;;;;;104.07;39.53;;;;;;;;;;6176178;23;20552;-85
2022/01/26 06:26:01;;;;;;;129.93;43.35;;;2.90;99.90;;;;;;6181798;23;20415;-87
2022/01/26 06:28:28;;;;;;;123.80;41.55;;;3.30;99.90;;;;;;6179108;23;20610;-86
2022/01/26 06:31:00;;;;;;;118.15;42.08;;;3.40;99.90;;;;;;6178802;23;20464;-83
2022/01/26 06:33:28;;;;;;;100.50;42.30;;;3.40;99.90;;;;;;6178442;23;20155;-86
2022/01/26 06:35:59;;;;;;;100.38;40.85;;;3.30;99.90;;;;;;6180263;23;20148;-86
2022/01/26 06:38:25;;;;;;;111.75;44.05;;;3.30;99.90;;;;;;6175020;23;20156;-85
2022/01/26 06:40:52;;;;;;;118.97;40.75;;;3.50;99.90;;;;;;6177455;23;20167;-85
2022/01/26 06:43:31;;;;;;;98.75;38.78;;;3.40;99.90;;;;;;6178239;23;20218;-83
2022/01/26 06:46:06;;;;;;;117.00;41.63;;;3.40;99.90;;;;;;6177952;23;20178;-85
2022/01/26 06:52:00;;;;;;;102.00;39.47;;;3.50;99.90;;;;;;6183976;23;20253;-85
2022/01/26 06:54:26;;;;;;;123.20;43.80;;;3.40;99.90;;;;;;6162989;23;20762;-85
2022/01/26 06:56:52;;;;;;;115.53;41.37;;;3.20;99.90;;;;;;6178627;23;20383;-85
2022/01/26 06:59:18;;;;;;;115.88;42.13;;;3.40;99.90;;;;;;6174966;23;20418;-82
2022/01/26 07:01:44;;;;;;;112.33;38.10;;;3.30;99.90;;;;;;6177536;23;20152;-86
2022/01/26 07:07:37;;;;;;;;;;;;;;;;;;;;;
2022/01/26 07:10:04;;;;;;;95.43;34.88;;;3.30;99.90;;;;;;6173642;23;20242;-84
2022/01/26 07:12:30;;;;;;;106.00;41.10;;;3.30;99.90;;;;;;6175977;23;20592;-84
2022/01/26 07:23:09;;;;;;;130.32;43.75;;;2.90;99.90;;;;;;6189825;23;20132;-87
2022/01/26 07:25:55;;;;;;;112.50;41.85;;;2.90;99.90;;;;;;6179174;23;20206;-86
2022/01/26 07:28:27;;;;;;;118.25;43.58;;;3.00;99.90;;;;;;6158257;23;20187;-87
2022/01/26 07:30:58;;;;;;;124.88;43.33;;;3.00;99.90;;;;;;6176432;23;20624;-83
2022/01/26 07:33:37;;;;;;;125.90;45.10;;;2.90;99.90;;;;;;6180623;23;20140;-86
2022/01/26 07:39:06;;;;;;;113.88;38.72;;;3.20;99.90;;;;;;6161763;23;20144;-88
2022/01/26 07:41:32;;;;;;;116.25;43.97;;;3.30;99.90;;;;;;6172839;23;20159;-82
2022/01/26 07:43:58;;;;;;;107.60;37.33;;;;;;;;;;6176824;23;20143;-88
2022/01/26 07:46:27;;;;;;;109.47;40.92;;;3.40;99.90;;;;;;6176128;23;20664;-88
2022/01/26 07:49:02;;;;;;;113.47;40.58;;;3.30;99.90;;;;;;6176180;23;20159;-86
2022/01/26 07:51:30;;;;;;;116.38;39.63;;;3.30;99.90;;;;;;6174537;23;20199;-87
2022/01/26 07:54:01;;;;;;;97.97;38.58;;;3.30;99.90;;;;;;6173329;23;20230;-88
2022/01/26 07:56:29;;;;;;;114.03;35.55;;;3.40;99.90;;;;;;6173736;23;20163;-83
2022/01/26 07:58:58;;;;;;;117.70;40.30;;;3.30;99.90;;;;;;6175894;23;20172;-87
2022/01/26 08:01:36;;;;;;;113.63;38.53;;;3.30;99.90;;;;;;6173251;23;20160;-88
2022/01/26 08:04:06;;;;;;;105.53;36.35;;;3.30;99.90;;;;;;6174171;23;20148;-87
2022/01/26 08:06:35;;;;;;;111.85;38.42;;;3.40;99.90;;;;;;6176413;23;20211;-87
2022/01/26 08:09:01;;;;;;;118.65;41.55;;;3.30;99.90;;;;;;6174414;23;20152;-86
2022/01/26 08:11:39;;;;;;;115.07;40.53;;;3.30;99.90;;;;;;6176321;23;20226;-87
2022/01/26 08:14:34;;;;;;;115.78;39.45;;;3.30;99.90;;;;;;6173725;23;20156;-87
2022/01/26 08:17:46;;;;;;;130.55;38.53;;;3.10;99.90;;;;;;6175915;23;20152;-88
2022/01/26 08:20:14;;;;;;;120.95;40.63;;;3.30;99.90;;;;;;6060697;23;20161;-88
2022/01/26 08:23:36;;;;;;;124.20;41.30;;;3.20;99.90;;;;;;6088771;23;20146;-85
2022/01/26 08:26:05;;;;;;;122.13;40.95;;;3.30;99.90;;;;;;6065421;23;20469;-89
2022/01/26 08:29:01;;;;;;;114.35;41.30;;;3.10;99.90;;;;;;6088596;23;20139;-89
2022/01/26 08:31:45;;;;;;;92.47;34.03;;;4.10;99.90;;;;;;6089341;23;20205;-89
2022/01/26 08:34:17;;;;;;;110.55;39.35;;;3.50;99.90;;;;;;6087530;23;20172;-89
2022/01/26 08:36:46;;;;;;;111.00;37.20;;;3.50;99.90;;;;;;6089865;23;20154;-82
2022/01/26 08:39:46;;;;;;;123.85;42.10;;;3.40;99.90;;;;;;6083494;23;20586;-88
2022/01/26 08:42:26;;;;;;;94.80;35.88;;;3.50;99.90;;;;;;5996483;23;20198;-90
2022/01/26 08:45:02;;;;;;;;;;;;;;;;;;;;;
2022/01/26 08:48:08;;;;;;;124.80;42.05;;;3.40;99.90;;;;;;6181169;23;20222;-87
2022/01/26 08:50:34;;;;;;;108.78;39.45;;;3.40;99.90;;;;;;6179467;23;20187;-83
2022/01/26 08:52:59;;;;;;;130.32;46.65;;;3.30;99.90;;;;;;6179265;23;20175;-79
2022/01/26 08:55:25;;;;;;;108.03;39.03;;;3.30;99.90;;;;;;6177325;23;20152;-88
2022/01/26 08:58:32;;;;;;;;;;;;;;;;;;;;;
2022/01/26 09:01:00;;;;;;;114.22;41.95;;;3.50;99.90;;;;;;6180081;23;20934;-85
2022/01/26 09:04:38;;;;;;;129.68;43.22;;;3.60;99.90;;;;;;6179837;23;20222;-84
2022/01/26 09:06:59;;;;;;;110.93;40.47;;;3.60;99.90;;;;;;6167675;23;20226;-79
2022/01/26 09:10:05;;;;;;;127.38;39.75;;;3.40;99.90;;;;;;6154093;23;20473;-89
2022/01/26 09:12:52;;;;;;;137.43;44.28;;;3.50;99.90;;;;;;6164537;23;20248;-87
2022/01/26 09:15:56;;;;;;;125.70;42.25;;;3.30;99.90;;;;;;6179305;23;20235;-83
2022/01/26 09:22:21;;;;;;;114.05;38.67;;;3.50;99.90;;;;;;6088436;23;20169;-87
2022/01/26 09:25:11;;;;;;;110.15;36.78;;;3.60;99.90;;;;;;6063870;23;20166;-88
2022/01/26 09:27:46;;;;;;;114.22;38.47;;;3.70;99.90;;;;;;6088528;23;20144;-89
2022/01/26 09:30:19;;;;;;;119.13;41.05;;;3.70;99.90;;;;;;6115383;23;20159;-88
2022/01/26 09:32:49;;;;;;;122.07;43.42;;;3.70;99.90;;;;;;6187049;23;20175;-84
2022/01/26 09:35:17;;;;;;;131.77;44.72;;;3.70;99.90;;;;;;6179813;23;20141;-83
2022/01/26 09:38:17;;;;;;;123.75;40.33;;;3.60;99.90;;;;;;6184588;23;20454;-89
2022/01/26 09:40:49;;;;;;;126.68;42.80;;;3.60;99.90;;;;;;6165317;23;20572;-86
2022/01/26 09:43:47;;;;;;;134.18;44.50;;;3.60;99.90;;;;;;6178610;23;20171;-86
2022/01/26 09:46:31;;;;;;;138.88;45.10;;;3.60;99.90;;;;;;6160698;23;20180;-88
2022/01/26 09:48:58;;;;;;;135.48;46.67;;;3.40;99.90;;;;;;6176205;23;20717;-85
2022/01/26 09:51:47;;;;;;;131.77;41.65;;;3.30;99.90;;;;;;6171681;23;20699;-87
2022/01/26 09:54:16;;;;;;;137.43;44.35;;;3.40;99.90;;;;;;6173445;23;20203;-83
2022/01/26 09:57:00;;;;;;;145.85;47.55;;;3.50;99.90;;;;;;6174663;23;20152;-88
2022/01/26 09:59:27;;;;;;;133.18;46.22;;;3.50;99.90;;;;;;6172968;23;20436;-86
2022/01/26 10:02:49;;;;;;;107.07;38.88;;;3.40;99.90;;;;;;6174646;23;20163;-86
2022/01/26 10:05:19;;;;;;;142.77;45.10;;;3.50;99.90;;;;;;6176462;23;20518;-84
2022/01/26 10:08:13;;;;;;;124.63;44.33;;;3.50;99.90;;;;;;6177461;23;20152;-84
2022/01/26 10:17:20;;;;;;;130.05;44.90;;;3.20;99.90;;;;;;6177067;23;20194;-88
2022/01/26 10:20:19;;;;;;;138.52;44.83;;;3.20;99.90;;;;;;6175417;23;20198;-88
2022/01/26 10:22:45;;;;;;;127.18;40.08;;;3.20;99.90;;;;;;6177424;23;20144;-83
2022/01/26 10:25:21;;;;;;;134.63;46.60;;;3.30;99.90;;;;;;6173564;23;20262;-88
2022/01/26 10:28:21;;;;;;;;;;;;;;;;;;;;;
2022/01/26 10:30:49;;;;;;;126.28;43.55;;;3.40;99.90;;;;;;6176424;23;20247;-80
2022/01/26 10:33:16;;;;;;;146.48;48.47;;;3.40;99.90;;;;;;6174062;23;20631;-86
2022/01/26 10:35:43;;;;;;;123.03;46.53;;;3.40;99.90;;;;;;6175984;23;20151;-81
2022/01/26 10:38:11;;;;;;;142.60;50.00;;;3.40;99.90;;;;;;6174087;23;20160;-86
2022/01/26 10:40:41;;;;;;;129.00;41.53;;;3.30;99.90;;;;;;6176366;23;20180;-87
2022/01/26 10:43:11;;;;;;;140.27;49.20;;;3.60;99.90;;;;;;6174317;23;20152;-81
2022/01/26 10:46:08;;;;;;;136.57;48.55;;;3.50;99.90;;;;;;6163849;23;20200;-89
2022/01/26 10:49:03;;;;;;;139.18;42.63;;;3.40;99.90;;;;;;6150358;23;20260;-87
2022/01/26 10:57:43;;;;;;;134.90;42.72;;;3.50;99.90;;;;;;6121713;23;20171;-88
2022/01/26 11:00:03;;;;;;;127.32;42.55;;;4.20;99.90;;;;;;6116277;23;20154;-81
2022/01/26 11:03:35;;;;;;;125.22;41.38;;;3.60;99.90;;;;;;6123453;23;20145;-89
2022/01/26 11:06:31;;;;;;;138.68;46.85;;;3.50;99.90;;;;;;6035362;23;20243;-85
2022/01/26 11:09:20;;;;;;;132.02;40.88;;;3.50;99.90;;;;;;6085736;23;20228;-89
2022/01/26 11:11:46;;;;;;;138.85;44.55;;;3.40;99.90;;;;;;6097115;23;20185;-82
2022/01/26 11:14:14;;;;;;;111.30;41.73;;;3.50;99.90;;;;;;6121229;23;20190;-81
2022/01/26 11:16:48;;;;;;;123.43;41.05;;;3.50;99.90;;;;;;6095402;23;20404;-84
2022/01/26 11:19:46;;;;;;;131.60;44.95;;;3.40;99.90;;;;;;6124635;23;20150;-91
2022/01/26 11:22:15;;;;;;;122.75;42.17;;;3.60;99.90;;;;;;6155725;23;20192;-85
2022/01/26 11:30:22;;;;;;;124.20;39.80;;;3.60;99.90;;;;;;6127130;23;20268;-88
2022/01/26 11:48:26;;;;;;;120.90;42.92;;;3.80;99.90;;;;;;6068078;23;20174;-89
2022/01/26 11:54:21;;;;;;;122.85;39.92;;;3.60;99.90;;;;;;6122702;23;20204;-90
2022/01/26 11:57:02;;;;;;;122.28;39.67;;;3.60;99.90;;;;;;6092446;23;20157;-84
2022/01/26 11:59:48;;;;;;;120.38;41.65;;;3.60;99.90;;;;;;6122484;23;20153;-87
2022/01/26 12:03:10;;;;;;;71.13;26.20;;;3.80;99.90;;;;;;6126196;23;20145;-89
2022/01/26 12:08:45;;;;;;;121.90;37.38;;;3.70;99.90;;;;;;6132473;22;20298;-90
2022/01/26 12:11:18;;;;;;;109.13;36.97;;;3.80;99.90;;;;;;6153619;23;20503;-88
2022/01/26 12:13:49;;;;;;;114.57;44.42;;;3.70;99.90;;;;;;6151984;23;20144;-88
2022/01/26 12:16:54;;;;;;;113.05;39.88;;;3.60;99.90;;;;;;6154794;23;20236;-87
2022/01/26 12:19:50;;;;;;;125.10;39.08;;;4.10;99.90;;;;;;6194572;23;20136;-85
2022/01/26 12:35:21;;;;;;;97.30;34.58;;;3.70;99.90;;;;;;6141192;23;20565;-81
2022/01/26 12:38:02;;;;;;;88.68;34.22;;;4.60;99.90;;;;;;6141571;23;20585;-81
2022/01/26 12:43:45;;;;;;;101.97;31.98;;;3.40;99.90;;;;;;6141630;23;20168;-81
2022/01/26 12:46:16;;;;;;;109.22;34.97;;;3.60;99.90;;;;;;6168192;23;20564;-80
2022/01/26 12:48:48;;;;;;;115.72;37.17;;;3.80;99.90;;;;;;6137648;23;20589;-83
2022/01/26 12:51:14;;;;;;;112.00;37.20;;;3.70;99.90;;;;;;6149065;23;20176;-84
2022/01/26 12:53:40;;;;;;;112.57;40.03;;;3.70;99.90;;;;;;6119343;23;20283;-81
2022/01/26 12:56:16;;;;;;;113.97;36.92;;;3.60;99.90;;;;;;6122462;23;20462;-83
2022/01/26 12:58:42;;;;;;;94.80;30.92;;;3.70;99.90;;;;;;6121443;23;20180;-83
2022/01/26 13:01:19;;;;;;;112.25;35.33;;;3.70;99.90;;;;;;6150356;23;20348;-82
2022/01/26 13:03:48;;;;;;;119.70;37.83;;;3.70;99.90;;;;;;6146154;23;20149;-83
2022/01/26 13:06:23;;;;;;;107.18;36.40;;;3.90;99.90;;;;;;6123191;23;20156;-82
2022/01/26 13:08:56;;;;;;;100.70;39.75;;;3.60;99.90;;;;;;6147010;23;20255;-84
2022/01/26 13:11:35;;;;;;;97.78;36.70;;;3.50;99.90;;;;;;6151037;23;20207;-81
2022/01/26 13:14:25;;;;;;;88.00;32.17;;;3.70;99.90;;;;;;6121441;23;20650;-85
2022/01/26 13:16:58;;;;;;;93.68;36.85;;;2.90;99.90;;;;;;6119010;23;20210;-82
2022/01/26 13:22:34;;;;;;;98.63;35.63;;;3.80;99.90;;;;;;6146580;23;20168;-82
2022/01/26 13:25:14;;;;;;;77.35;22.17;;;4.30;99.90;;;;;;6150049;23;20148;-79
2022/01/26 13:28:20;;;;;;;91.45;34.53;;;3.60;99.90;;;;;;6122837;23;20517;-82
2022/01/26 13:31:11;;;;;;;106.30;36.13;;;3.70;99.90;;;;;;6115304;23;20162;-85
2022/01/26 13:39:36;;;;;;;81.60;34.25;;;3.80;99.90;;;;;;6147019;23;20524;-81
2022/01/26 13:47:25;;;;;;;95.30;32.78;;;3.50;99.90;;;;;;6151547;23;20160;-81
2022/01/26 13:57:48;;;;;;;72.78;28.27;;;3.70;99.90;;;;;;6145141;23;20164;-84
2022/01/26 14:00:18;;;;;;;83.35;31.60;;;3.60;99.90;;;;;;6143326;23;20442;-84
2022/01/26 14:02:44;;;;;;;86.03;33.53;;;3.70;99.90;;;;;;6141760;23;20447;-80
2022/01/26 14:05:12;;;;;;;68.73;26.00;;;3.60;99.90;;;;;;6145582;23;20191;-83
2022/01/26 14:07:38;;;;;;;87.45;29.02;;;3.90;99.90;;;;;;6139788;23;20721;-84
2022/01/26 14:10:04;;;;;;;81.83;29.27;;;3.90;99.90;;;;;;6145816;23;20156;-84
2022/01/26 14:12:35;;;;;;;89.15;29.00;;;3.90;99.90;;;;;;6143419;23;20212;-84
2022/01/26 14:15:06;;;;;;;76.25;31.10;;;3.90;99.90;;;;;;6149779;23;20140;-84
2022/01/26 14:17:43;;;;;;;72.47;28.88;;;3.90;99.90;;;;;;6147536;23;20160;-84
2022/01/26 14:27:36;;;;;;;60.30;22.00;;;3.90;99.90;;;;;;6151552;23;20714;-82
2022/01/26 14:30:22;;;;;;;70.93;27.65;;;3.90;99.90;;;;;;6151091;23;20133;-86
2022/01/26 14:35:29;;;;;;;65.50;27.37;;;3.90;99.90;;;;;;6149887;23;20274;-83
2022/01/26 14:54:49;;;;;;;63.97;25.52;;;3.80;99.90;;;;;;6146097;23;20169;-85
2022/01/26 15:22:43;;;;;;;66.80;26.10;;;3.90;99.90;;;;;;6144715;23;20179;-85
2022/01/26 15:48:48;;;;;;;59.28;24.75;;;3.70;99.90;;;;;;6146180;23;20244;-84
2022/01/26 15:52:08;;;;;;;80.38;28.95;;;3.70;99.90;;;;;;6122959;23;20327;-89
2022/01/26 16:16:31;;;;;;;72.10;29.50;;;4.00;99.90;;;;;;6150396;23;20210;-78
2022/01/26 16:19:41;;;;;;;58.03;25.65;;;3.80;99.90;;;;;;6148462;23;20584;-83
2022/01/26 18:06:05;;;;;;;63.30;23.67;;;3.30;99.90;;;;;;6139099;23;20618;-82
2022/01/26 18:26:42;;;;;;;74.50;30.48;;;3.70;99.90;;;;;;6142068;23;20179;-85
2022/01/26 18:50:32;;;;;;;68.63;26.67;;;3.30;99.90;;;;;;6163290;23;20565;-80
2022/01/26 18:52:58;;;;;;;78.70;30.20;;;3.30;99.90;;;;;;6169661;23;20214;-80
2022/01/26 18:55:23;;;;;;;75.47;32.30;;;3.40;99.90;;;;;;6166802;23;20434;-80
2022/01/26 18:57:49;;;;;;;76.83;31.03;;;3.20;99.90;;;;;;6171668;23;20171;-80
2022/01/26 19:00:16;;;;;;;75.25;30.70;;;3.30;99.90;;;;;;6173010;23;20160;-80
2022/01/26 19:02:41;;;;;;;64.82;24.98;;;3.50;99.90;;;;;;6168004;23;20156;-81
2022/01/26 19:05:08;;;;;;;74.33;28.90;;;3.50;99.90;;;;;;6151767;23;20386;-88
2022/01/26 19:53:03;;;;;;;58.08;23.88;;;3.30;99.90;;;;;;6174953;23;20178;-87
2022/01/26 20:03:28;;;;;;;60.80;24.15;;;3.20;99.90;;;;;;6171208;23;20219;-87
2022/01/26 20:15:19;;;;;;;60.53;29.15;;;3.40;99.90;;;;;;6050760;23;20170;-88
2022/01/26 20:17:47;;;;;;;59.33;27.02;;;;;;;;;;6001682;23;20164;-87
2022/01/26 20:21:10;;;;;;;64.40;26.95;;;3.30;99.90;;;;;;6026813;23;20160;-86
2022/01/26 20:24:16;;;;;;;68.15;29.45;;;3.40;99.90;;;;;;6028778;23;20242;-87
2022/01/26 20:27:22;;;;;;;55.75;27.05;;;3.50;99.90;;;;;;6005022;23;20183;-88
2022/01/26 20:30:33;;;;;;;51.50;23.20;;;3.30;99.90;;;;;;5915957;24;20202;-87
2022/01/26 20:36:16;;;;;;;59.67;26.17;;;3.40;99.90;;;;;;5914771;24;20180;-86
2022/01/26 20:38:50;;;;;;;65.38;26.00;;;3.20;99.90;;;;;;5913022;24;20172;-87
2022/01/26 20:41:16;;;;;;;47.35;22.92;;;3.20;99.90;;;;;;5985417;23;20231;-86
2022/01/26 20:46:13;;;;;;;65.00;26.03;;;3.30;99.90;;;;;;6136738;23;20466;-86
2022/01/26 20:52:23;;;;;;;29.75;15.75;;;3.10;99.90;;;;;;6101180;23;20208;-88
2022/01/26 20:54:49;;;;;;;49.45;25.05;;;3.40;99.90;;;;;;6095694;23;20153;-87
2022/01/26 21:00:28;;;;;;;52.33;21.40;;;3.20;99.90;;;;;;6074407;23;20458;-87
2022/01/26 21:02:56;;;;;;;48.37;24.67;;;;;;;;;;6114216;23;20264;-84
2022/01/26 21:05:29;;;;;;;54.60;25.92;;;3.40;99.90;;;;;;6087174;23;20516;-86
2022/01/26 21:08:00;;;;;;;56.78;25.45;;;3.50;99.90;;;;;;6090242;23;20157;-85
2022/01/26 21:10:51;;;;;;;57.88;26.15;;;3.30;99.90;;;;;;6089760;23;20156;-88
2022/01/26 21:13:53;;;;;;;;;;;;;;;;;;;;;
2022/01/26 21:16:32;;;;;;;53.30;26.27;;;3.30;99.90;;;;;;6112594;23;20247;-88
2022/01/26 21:19:34;;;;;;;;;;;;;;;;;;;;;
2022/01/26 21:22:23;;;;;;;;;;;;;;;;;;;;;
2022/01/26 21:24:52;;;;;;;46.03;20.35;;;3.40;99.90;;;;;;6113568;23;20233;-89
2022/01/26 21:30:48;;;;;;;55.10;23.65;;;3.40;99.90;;;;;;6143943;23;20208;-88
2022/01/26 21:33:44;;;;;;;47.40;21.70;;;3.40;99.90;;;;;;6115362;23;20196;-85
2022/01/26 21:36:14;;;;;;;49.00;23.48;;;3.40;99.90;;;;;;6102358;23;20238;-86
2022/01/26 21:38:44;;;;;;;45.45;20.17;;;3.40;99.90;;;;;;6115566;23;20199;-85
2022/01/26 21:41:16;;;;;;;47.75;21.42;;;3.50;99.90;;;;;;6143261;23;20161;-86
2022/01/26 21:43:48;;;;;;;52.00;20.60;;;3.60;99.90;;;;;;6143151;23;20239;-86